sensor_id;sensor_type;location;lat;lon;timestamp;P1;durP1;ratioP1;P2;durP2;ratioP2
10945;SDS011;5525;42.648;23.368;2023-07-30T00:00:52;2.75;;;2.38;;
10945;SDS011;5525;42.648;23.368;2023-07-30T00:03:19;4.10;;;2.63;;
10945;SDS011;5525;42.648;23.368;2023-07-30T00:05:51;3.25;;;2.92;;
10945;SDS011;5525;42.648;23.368;2023-07-30T00:08:19;3.03;;;2.70;;
10945;SDS011;5525;42.648;23.368;2023-07-30T00:10:45;4.18;;;2.72;;
10945;SDS011;5525;42.648;23.368;2023-07-30T00:13:12;2.97;;;2.63;;
10945;SDS011;5525;42.648;23.368;2023-07-30T00:15:40;4.40;;;2.85;;
10945;SDS011;5525;42.648;23.368;2023-07-30T00:18:07;3.83;;;2.75;;
10945;SDS011;5525;42.648;23.368;2023-07-30T00:20:33;2.90;;;2.30;;
10945;SDS011;5525;42.648;23.368;2023-07-30T00:23:00;3.13;;;2.47;;
10945;SDS011;5525;42.648;23.368;2023-07-30T00:25:27;3.58;;;2.75;;
10945;SDS011;5525;42.648;23.368;2023-07-30T00:27:54;3.38;;;3.08;;
10945;SDS011;5525;42.648;23.368;2023-07-30T00:30:20;5.20;;;2.70;;
10945;SDS011;5525;42.648;23.368;2023-07-30T00:32:48;3.40;;;3.08;;
10945;SDS011;5525;42.648;23.368;2023-07-30T00:35:15;3.25;;;2.90;;
10945;SDS011;5525;42.648;23.368;2023-07-30T00:37:42;4.13;;;2.80;;
10945;SDS011;5525;42.648;23.368;2023-07-30T00:40:09;2.92;;;2.63;;
10945;SDS011;5525;42.648;23.368;2023-07-30T00:42:36;3.10;;;2.80;;
10945;SDS011;5525;42.648;23.368;2023-07-30T00:45:03;3.97;;;2.88;;
10945;SDS011;5525;42.648;23.368;2023-07-30T00:47:31;4.38;;;3.00;;
10945;SDS011;5525;42.648;23.368;2023-07-30T00:49:59;2.85;;;2.50;;
10945;SDS011;5525;42.648;23.368;2023-07-30T00:52:26;2.85;;;2.65;;
10945;SDS011;5525;42.648;23.368;2023-07-30T00:54:54;3.20;;;2.90;;
10945;SDS011;5525;42.648;23.368;2023-07-30T00:57:23;3.50;;;3.20;;
10945;SDS011;5525;42.648;23.368;2023-07-30T00:59:50;7.40;;;2.80;;
10945;SDS011;5525;42.648;23.368;2023-07-30T01:02:17;3.25;;;2.90;;
10945;SDS011;5525;42.648;23.368;2023-07-30T01:04:44;3.85;;;3.08;;
10945;SDS011;5525;42.648;23.368;2023-07-30T01:07:13;3.13;;;2.80;;
10945;SDS011;5525;42.648;23.368;2023-07-30T01:09:39;3.53;;;3.00;;
10945;SDS011;5525;42.648;23.368;2023-07-30T01:12:06;2.88;;;2.67;;
10945;SDS011;5525;42.648;23.368;2023-07-30T01:14:33;3.33;;;3.03;;
10945;SDS011;5525;42.648;23.368;2023-07-30T01:17:03;5.22;;;2.67;;
10945;SDS011;5525;42.648;23.368;2023-07-30T01:19:30;5.20;;;3.28;;
10945;SDS011;5525;42.648;23.368;2023-07-30T01:21:59;3.67;;;3.15;;
10945;SDS011;5525;42.648;23.368;2023-07-30T01:24:25;3.08;;;2.88;;
10945;SDS011;5525;42.648;23.368;2023-07-30T01:26:54;3.35;;;2.75;;
10945;SDS011;5525;42.648;23.368;2023-07-30T01:29:27;3.50;;;3.13;;
10945;SDS011;5525;42.648;23.368;2023-07-30T01:31:57;3.80;;;3.42;;
10945;SDS011;5525;42.648;23.368;2023-07-30T01:34:30;3.15;;;2.65;;
10945;SDS011;5525;42.648;23.368;2023-07-30T01:37:02;2.83;;;2.40;;
10945;SDS011;5525;42.648;23.368;2023-07-30T01:39:31;3.47;;;2.60;;
10945;SDS011;5525;42.648;23.368;2023-07-30T01:41:59;3.35;;;3.05;;
10945;SDS011;5525;42.648;23.368;2023-07-30T01:44:25;3.85;;;3.00;;
10945;SDS011;5525;42.648;23.368;2023-07-30T01:46:52;4.72;;;3.03;;
10945;SDS011;5525;42.648;23.368;2023-07-30T01:49:18;3.42;;;2.90;;
10945;SDS011;5525;42.648;23.368;2023-07-30T01:51:45;3.28;;;2.80;;
10945;SDS011;5525;42.648;23.368;2023-07-30T01:54:13;3.17;;;2.72;;
10945;SDS011;5525;42.648;23.368;2023-07-30T01:56:40;5.20;;;3.00;;
10945;SDS011;5525;42.648;23.368;2023-07-30T01:59:07;5.60;;;3.17;;
10945;SDS011;5525;42.648;23.368;2023-07-30T02:01:33;3.70;;;3.22;;
10945;SDS011;5525;42.648;23.368;2023-07-30T02:04:00;3.42;;;2.70;;
10945;SDS011;5525;42.648;23.368;2023-07-30T02:06:27;3.00;;;2.70;;
10945;SDS011;5525;42.648;23.368;2023-07-30T02:08:53;5.43;;;3.00;;
10945;SDS011;5525;42.648;23.368;2023-07-30T02:11:21;4.43;;;2.90;;
10945;SDS011;5525;42.648;23.368;2023-07-30T02:13:48;2.90;;;2.60;;
10945;SDS011;5525;42.648;23.368;2023-07-30T02:16:14;5.97;;;3.30;;
10945;SDS011;5525;42.648;23.368;2023-07-30T02:18:41;3.53;;;3.08;;
10945;SDS011;5525;42.648;23.368;2023-07-30T02:21:08;3.67;;;2.50;;
10945;SDS011;5525;42.648;23.368;2023-07-30T02:23:34;2.67;;;2.47;;
10945;SDS011;5525;42.648;23.368;2023-07-30T02:26:01;3.15;;;2.85;;
10945;SDS011;5525;42.648;23.368;2023-07-30T02:28:29;3.08;;;2.78;;
10945;SDS011;5525;42.648;23.368;2023-07-30T02:30:56;3.22;;;2.92;;
10945;SDS011;5525;42.648;23.368;2023-07-30T02:33:23;3.33;;;2.83;;
10945;SDS011;5525;42.648;23.368;2023-07-30T02:35:50;3.38;;;3.03;;
10945;SDS011;5525;42.648;23.368;2023-07-30T02:38:16;3.13;;;2.90;;
10945;SDS011;5525;42.648;23.368;2023-07-30T02:40:43;3.25;;;2.95;;
10945;SDS011;5525;42.648;23.368;2023-07-30T02:43:10;4.47;;;4.07;;
10945;SDS011;5525;42.648;23.368;2023-07-30T02:45:38;4.53;;;3.30;;
10945;SDS011;5525;42.648;23.368;2023-07-30T02:48:05;3.10;;;2.90;;
10945;SDS011;5525;42.648;23.368;2023-07-30T02:50:31;3.45;;;2.92;;
10945;SDS011;5525;42.648;23.368;2023-07-30T02:52:58;5.47;;;3.03;;
10945;SDS011;5525;42.648;23.368;2023-07-30T02:55:25;3.08;;;2.70;;
10945;SDS011;5525;42.648;23.368;2023-07-30T02:57:51;5.20;;;3.17;;
10945;SDS011;5525;42.648;23.368;2023-07-30T03:00:18;4.95;;;3.45;;
10945;SDS011;5525;42.648;23.368;2023-07-30T03:02:46;3.78;;;3.13;;
10945;SDS011;5525;42.648;23.368;2023-07-30T03:05:13;4.20;;;3.45;;
10945;SDS011;5525;42.648;23.368;2023-07-30T03:07:40;3.17;;;2.88;;
10945;SDS011;5525;42.648;23.368;2023-07-30T03:10:06;3.40;;;3.10;;
10945;SDS011;5525;42.648;23.368;2023-07-30T03:12:33;3.20;;;2.90;;
10945;SDS011;5525;42.648;23.368;2023-07-30T03:15:00;3.38;;;3.00;;
10945;SDS011;5525;42.648;23.368;2023-07-30T03:17:27;4.13;;;3.22;;
10945;SDS011;5525;42.648;23.368;2023-07-30T03:19:55;3.88;;;3.22;;
10945;SDS011;5525;42.648;23.368;2023-07-30T03:22:21;3.65;;;3.20;;
10945;SDS011;5525;42.648;23.368;2023-07-30T03:24:48;3.60;;;3.28;;
10945;SDS011;5525;42.648;23.368;2023-07-30T03:27:15;9.07;;;3.28;;
10945;SDS011;5525;42.648;23.368;2023-07-30T03:29:42;4.78;;;3.00;;
10945;SDS011;5525;42.648;23.368;2023-07-30T03:32:08;7.88;;;3.22;;
10945;SDS011;5525;42.648;23.368;2023-07-30T03:34:35;4.85;;;3.50;;
10945;SDS011;5525;42.648;23.368;2023-07-30T03:37:03;4.95;;;3.33;;
10945;SDS011;5525;42.648;23.368;2023-07-30T03:39:30;3.58;;;3.00;;
10945;SDS011;5525;42.648;23.368;2023-07-30T03:41:57;3.55;;;3.17;;
10945;SDS011;5525;42.648;23.368;2023-07-30T03:44:23;3.20;;;2.90;;
10945;SDS011;5525;42.648;23.368;2023-07-30T03:46:50;3.47;;;3.17;;
10945;SDS011;5525;42.648;23.368;2023-07-30T03:49:16;3.22;;;2.83;;
10945;SDS011;5525;42.648;23.368;2023-07-30T03:51:42;5.85;;;3.95;;
10945;SDS011;5525;42.648;23.368;2023-07-30T03:54:10;4.43;;;3.00;;
10945;SDS011;5525;42.648;23.368;2023-07-30T03:56:37;3.92;;;3.05;;
10945;SDS011;5525;42.648;23.368;2023-07-30T03:59:04;4.05;;;2.88;;
10945;SDS011;5525;42.648;23.368;2023-07-30T04:01:30;5.47;;;3.22;;
10945;SDS011;5525;42.648;23.368;2023-07-30T04:03:57;3.13;;;2.83;;
10945;SDS011;5525;42.648;23.368;2023-07-30T04:06:23;3.60;;;3.30;;
10945;SDS011;5525;42.648;23.368;2023-07-30T04:08:50;4.35;;;3.95;;
10945;SDS011;5525;42.648;23.368;2023-07-30T04:11:18;5.35;;;3.53;;
10945;SDS011;5525;42.648;23.368;2023-07-30T04:13:45;5.63;;;3.15;;
10945;SDS011;5525;42.648;23.368;2023-07-30T04:16:11;3.33;;;3.03;;
10945;SDS011;5525;42.648;23.368;2023-07-30T04:18:38;5.38;;;3.90;;
10945;SDS011;5525;42.648;23.368;2023-07-30T04:21:05;3.53;;;2.90;;
10945;SDS011;5525;42.648;23.368;2023-07-30T04:23:31;3.65;;;2.97;;
10945;SDS011;5525;42.648;23.368;2023-07-30T04:25:58;3.40;;;2.90;;
10945;SDS011;5525;42.648;23.368;2023-07-30T04:28:26;5.72;;;3.28;;
10945;SDS011;5525;42.648;23.368;2023-07-30T04:30:52;5.22;;;3.13;;
10945;SDS011;5525;42.648;23.368;2023-07-30T04:33:19;4.07;;;3.17;;
10945;SDS011;5525;42.648;23.368;2023-07-30T04:35:46;4.43;;;3.00;;
10945;SDS011;5525;42.648;23.368;2023-07-30T04:38:12;3.47;;;3.15;;
10945;SDS011;5525;42.648;23.368;2023-07-30T04:40:39;4.43;;;3.42;;
10945;SDS011;5525;42.648;23.368;2023-07-30T04:43:06;5.57;;;3.38;;
10945;SDS011;5525;42.648;23.368;2023-07-30T04:45:34;3.33;;;3.00;;
10945;SDS011;5525;42.648;23.368;2023-07-30T04:48:01;3.40;;;3.13;;
10945;SDS011;5525;42.648;23.368;2023-07-30T04:50:27;3.47;;;3.25;;
10945;SDS011;5525;42.648;23.368;2023-07-30T04:52:54;3.67;;;3.00;;
10945;SDS011;5525;42.648;23.368;2023-07-30T04:55:21;3.60;;;3.30;;
10945;SDS011;5525;42.648;23.368;2023-07-30T04:57:47;5.05;;;3.28;;
10945;SDS011;5525;42.648;23.368;2023-07-30T05:00:14;3.60;;;3.20;;
10945;SDS011;5525;42.648;23.368;2023-07-30T05:02:43;3.40;;;3.00;;
10945;SDS011;5525;42.648;23.368;2023-07-30T05:05:10;3.03;;;2.83;;
10945;SDS011;5525;42.648;23.368;2023-07-30T05:07:36;4.30;;;2.80;;
10945;SDS011;5525;42.648;23.368;2023-07-30T05:10:03;3.42;;;3.10;;
10945;SDS011;5525;42.648;23.368;2023-07-30T05:12:33;5.75;;;3.40;;
10945;SDS011;5525;42.648;23.368;2023-07-30T05:14:59;3.50;;;3.20;;
10945;SDS011;5525;42.648;23.368;2023-07-30T05:17:26;3.83;;;3.38;;
10945;SDS011;5525;42.648;23.368;2023-07-30T05:19:54;3.53;;;3.22;;
10945;SDS011;5525;42.648;23.368;2023-07-30T05:22:20;3.55;;;3.20;;
10945;SDS011;5525;42.648;23.368;2023-07-30T05:24:47;3.55;;;3.25;;
10945;SDS011;5525;42.648;23.368;2023-07-30T05:27:14;3.72;;;3.15;;
10945;SDS011;5525;42.648;23.368;2023-07-30T05:29:40;3.58;;;3.28;;
10945;SDS011;5525;42.648;23.368;2023-07-30T05:32:07;3.88;;;3.58;;
10945;SDS011;5525;42.648;23.368;2023-07-30T05:34:34;3.83;;;3.53;;
10945;SDS011;5525;42.648;23.368;2023-07-30T05:37:03;3.70;;;3.40;;
10945;SDS011;5525;42.648;23.368;2023-07-30T05:39:29;3.95;;;3.15;;
10945;SDS011;5525;42.648;23.368;2023-07-30T05:41:56;3.78;;;3.47;;
10945;SDS011;5525;42.648;23.368;2023-07-30T05:44:23;3.63;;;3.33;;
10945;SDS011;5525;42.648;23.368;2023-07-30T05:46:49;3.67;;;3.38;;
10945;SDS011;5525;42.648;23.368;2023-07-30T05:49:16;3.90;;;3.60;;
10945;SDS011;5525;42.648;23.368;2023-07-30T05:51:43;3.50;;;3.20;;
10945;SDS011;5525;42.648;23.368;2023-07-30T05:54:11;3.35;;;3.15;;
10945;SDS011;5525;42.648;23.368;2023-07-30T05:56:38;3.30;;;3.10;;
10945;SDS011;5525;42.648;23.368;2023-07-30T05:59:05;3.53;;;3.22;;
10945;SDS011;5525;42.648;23.368;2023-07-30T06:01:31;3.92;;;3.30;;
10945;SDS011;5525;42.648;23.368;2023-07-30T06:03:58;4.35;;;3.97;;
10945;SDS011;5525;42.648;23.368;2023-07-30T06:06:25;4.50;;;3.70;;
10945;SDS011;5525;42.648;23.368;2023-07-30T06:08:52;3.85;;;3.33;;
10945;SDS011;5525;42.648;23.368;2023-07-30T06:11:21;3.83;;;3.53;;
10945;SDS011;5525;42.648;23.368;2023-07-30T06:13:48;6.10;;;3.50;;
10945;SDS011;5525;42.648;23.368;2023-07-30T06:16:16;3.70;;;3.00;;
10945;SDS011;5525;42.648;23.368;2023-07-30T06:18:44;3.83;;;3.40;;
10945;SDS011;5525;42.648;23.368;2023-07-30T06:21:11;5.30;;;3.20;;
10945;SDS011;5525;42.648;23.368;2023-07-30T06:23:37;6.78;;;3.35;;
10945;SDS011;5525;42.648;23.368;2023-07-30T06:26:04;4.63;;;3.50;;
10945;SDS011;5525;42.648;23.368;2023-07-30T06:28:32;4.38;;;3.90;;
10945;SDS011;5525;42.648;23.368;2023-07-30T06:30:59;4.38;;;3.22;;
10945;SDS011;5525;42.648;23.368;2023-07-30T06:33:26;4.82;;;3.30;;
10945;SDS011;5525;42.648;23.368;2023-07-30T06:35:53;4.72;;;3.40;;
10945;SDS011;5525;42.648;23.368;2023-07-30T06:38:19;3.65;;;3.25;;
10945;SDS011;5525;42.648;23.368;2023-07-30T06:40:46;3.92;;;3.47;;
10945;SDS011;5525;42.648;23.368;2023-07-30T06:43:13;3.60;;;3.30;;
10945;SDS011;5525;42.648;23.368;2023-07-30T06:45:41;5.03;;;3.45;;
10945;SDS011;5525;42.648;23.368;2023-07-30T06:48:07;4.07;;;3.30;;
10945;SDS011;5525;42.648;23.368;2023-07-30T06:50:34;5.88;;;3.15;;
10945;SDS011;5525;42.648;23.368;2023-07-30T06:53:01;3.83;;;3.53;;
10945;SDS011;5525;42.648;23.368;2023-07-30T06:55:27;8.55;;;3.33;;
10945;SDS011;5525;42.648;23.368;2023-07-30T06:57:54;4.50;;;2.95;;
10945;SDS011;5525;42.648;23.368;2023-07-30T07:00:21;4.28;;;3.50;;
10945;SDS011;5525;42.648;23.368;2023-07-30T07:02:49;3.53;;;3.22;;
10945;SDS011;5525;42.648;23.368;2023-07-30T07:05:16;3.85;;;3.50;;
10945;SDS011;5525;42.648;23.368;2023-07-30T07:07:43;3.80;;;3.08;;
10945;SDS011;5525;42.648;23.368;2023-07-30T07:10:11;4.75;;;3.30;;
10945;SDS011;5525;42.648;23.368;2023-07-30T07:12:38;4.28;;;3.40;;
10945;SDS011;5525;42.648;23.368;2023-07-30T07:15:06;25.70;;;3.90;;
10945;SDS011;5525;42.648;23.368;2023-07-30T07:17:33;3.50;;;3.20;;
10945;SDS011;5525;42.648;23.368;2023-07-30T07:20:01;4.03;;;3.17;;
10945;SDS011;5525;42.648;23.368;2023-07-30T07:22:30;4.10;;;3.70;;
10945;SDS011;5525;42.648;23.368;2023-07-30T07:24:56;5.05;;;3.10;;
10945;SDS011;5525;42.648;23.368;2023-07-30T07:27:23;6.28;;;3.40;;
10945;SDS011;5525;42.648;23.368;2023-07-30T07:29:50;4.22;;;3.05;;
10945;SDS011;5525;42.648;23.368;2023-07-30T07:32:17;3.53;;;3.22;;
10945;SDS011;5525;42.648;23.368;2023-07-30T07:34:45;4.47;;;3.72;;
10945;SDS011;5525;42.648;23.368;2023-07-30T07:37:14;4.10;;;3.25;;
10945;SDS011;5525;42.648;23.368;2023-07-30T07:39:41;8.23;;;4.13;;
10945;SDS011;5525;42.648;23.368;2023-07-30T07:42:08;4.65;;;3.22;;
10945;SDS011;5525;42.648;23.368;2023-07-30T07:44:35;3.85;;;3.55;;
10945;SDS011;5525;42.648;23.368;2023-07-30T07:47:01;5.60;;;3.70;;
10945;SDS011;5525;42.648;23.368;2023-07-30T07:49:28;3.75;;;3.45;;
10945;SDS011;5525;42.648;23.368;2023-07-30T07:51:55;3.38;;;3.00;;
10945;SDS011;5525;42.648;23.368;2023-07-30T07:54:23;5.13;;;3.60;;
10945;SDS011;5525;42.648;23.368;2023-07-30T07:56:50;3.40;;;3.10;;
10945;SDS011;5525;42.648;23.368;2023-07-30T07:59:17;5.38;;;3.65;;
10945;SDS011;5525;42.648;23.368;2023-07-30T08:01:43;12.52;;;4.47;;
10945;SDS011;5525;42.648;23.368;2023-07-30T08:04:10;9.95;;;4.07;;
10945;SDS011;5525;42.648;23.368;2023-07-30T08:06:36;5.40;;;3.78;;
10945;SDS011;5525;42.648;23.368;2023-07-30T08:09:03;4.22;;;3.75;;
10945;SDS011;5525;42.648;23.368;2023-07-30T08:11:31;4.13;;;3.83;;
10945;SDS011;5525;42.648;23.368;2023-07-30T08:13:58;5.32;;;3.75;;
10945;SDS011;5525;42.648;23.368;2023-07-30T08:16:25;4.28;;;3.88;;
10945;SDS011;5525;42.648;23.368;2023-07-30T08:18:51;3.97;;;3.58;;
10945;SDS011;5525;42.648;23.368;2023-07-30T08:21:18;4.88;;;4.18;;
10945;SDS011;5525;42.648;23.368;2023-07-30T08:23:45;4.55;;;4.13;;
10945;SDS011;5525;42.648;23.368;2023-07-30T08:26:12;5.47;;;3.90;;
10945;SDS011;5525;42.648;23.368;2023-07-30T08:28:40;4.65;;;3.78;;
10945;SDS011;5525;42.648;23.368;2023-07-30T08:31:07;12.05;;;4.53;;
10945;SDS011;5525;42.648;23.368;2023-07-30T08:33:34;5.07;;;3.78;;
10945;SDS011;5525;42.648;23.368;2023-07-30T08:36:00;4.45;;;4.10;;
10945;SDS011;5525;42.648;23.368;2023-07-30T08:38:28;3.97;;;3.67;;
10945;SDS011;5525;42.648;23.368;2023-07-30T08:40:55;7.18;;;3.83;;
10945;SDS011;5525;42.648;23.368;2023-07-30T08:43:22;9.60;;;4.40;;
10945;SDS011;5525;42.648;23.368;2023-07-30T08:45:51;4.15;;;3.75;;
10945;SDS011;5525;42.648;23.368;2023-07-30T08:48:18;5.20;;;4.30;;
10945;SDS011;5525;42.648;23.368;2023-07-30T08:50:44;4.55;;;3.78;;
10945;SDS011;5525;42.648;23.368;2023-07-30T08:53:12;6.00;;;3.75;;
10945;SDS011;5525;42.648;23.368;2023-07-30T08:55:39;5.35;;;3.53;;
10945;SDS011;5525;42.648;23.368;2023-07-30T08:58:06;4.22;;;3.92;;
10945;SDS011;5525;42.648;23.368;2023-07-30T09:00:34;4.40;;;4.00;;
10945;SDS011;5525;42.648;23.368;2023-07-30T09:03:05;5.32;;;3.63;;
10945;SDS011;5525;42.648;23.368;2023-07-30T09:05:34;3.83;;;3.53;;
10945;SDS011;5525;42.648;23.368;2023-07-30T09:08:01;4.38;;;3.63;;
10945;SDS011;5525;42.648;23.368;2023-07-30T09:10:28;5.07;;;3.53;;
10945;SDS011;5525;42.648;23.368;2023-07-30T09:12:55;4.10;;;3.70;;
10945;SDS011;5525;42.648;23.368;2023-07-30T09:15:30;4.45;;;3.97;;
10945;SDS011;5525;42.648;23.368;2023-07-30T09:17:58;3.80;;;3.45;;
10945;SDS011;5525;42.648;23.368;2023-07-30T09:20:26;4.38;;;3.63;;
10945;SDS011;5525;42.648;23.368;2023-07-30T09:22:55;4.90;;;3.40;;
10945;SDS011;5525;42.648;23.368;2023-07-30T09:25:22;4.90;;;3.70;;
10945;SDS011;5525;42.648;23.368;2023-07-30T09:27:49;6.93;;;3.42;;
10945;SDS011;5525;42.648;23.368;2023-07-30T09:30:21;6.55;;;3.70;;
10945;SDS011;5525;42.648;23.368;2023-07-30T09:32:50;4.47;;;3.28;;
10945;SDS011;5525;42.648;23.368;2023-07-30T09:35:17;3.72;;;2.80;;
10945;SDS011;5525;42.648;23.368;2023-07-30T09:37:46;4.32;;;3.17;;
10945;SDS011;5525;42.648;23.368;2023-07-30T09:40:13;4.03;;;3.58;;
10945;SDS011;5525;42.648;23.368;2023-07-30T09:42:42;3.70;;;3.40;;
10945;SDS011;5525;42.648;23.368;2023-07-30T09:45:16;6.65;;;3.58;;
10945;SDS011;5525;42.648;23.368;2023-07-30T09:47:45;3.67;;;3.38;;
10945;SDS011;5525;42.648;23.368;2023-07-30T09:50:13;4.43;;;3.25;;
10945;SDS011;5525;42.648;23.368;2023-07-30T09:52:40;6.13;;;3.38;;
10945;SDS011;5525;42.648;23.368;2023-07-30T09:55:09;3.53;;;3.22;;
10945;SDS011;5525;42.648;23.368;2023-07-30T09:57:36;3.97;;;3.67;;
10945;SDS011;5525;42.648;23.368;2023-07-30T10:00:04;3.55;;;3.25;;
10945;SDS011;5525;42.648;23.368;2023-07-30T10:02:35;3.83;;;3.45;;
10945;SDS011;5525;42.648;23.368;2023-07-30T10:05:07;3.95;;;3.63;;
10945;SDS011;5525;42.648;23.368;2023-07-30T10:07:36;4.32;;;3.22;;
10945;SDS011;5525;42.648;23.368;2023-07-30T10:10:09;3.70;;;3.40;;
10945;SDS011;5525;42.648;23.368;2023-07-30T10:12:37;3.70;;;3.40;;
10945;SDS011;5525;42.648;23.368;2023-07-30T10:15:06;3.88;;;3.58;;
10945;SDS011;5525;42.648;23.368;2023-07-30T10:17:34;3.60;;;3.30;;
10945;SDS011;5525;42.648;23.368;2023-07-30T10:22:52;6.45;;;3.60;;
10945;SDS011;5525;42.648;23.368;2023-07-30T10:25:22;3.80;;;3.50;;
10945;SDS011;5525;42.648;23.368;2023-07-30T10:27:53;3.88;;;3.58;;
10945;SDS011;5525;42.648;23.368;2023-07-30T10:30:20;3.72;;;3.42;;
10945;SDS011;5525;42.648;23.368;2023-07-30T10:35:40;4.50;;;3.67;;
10945;SDS011;5525;42.648;23.368;2023-07-30T10:38:17;3.80;;;3.50;;
10945;SDS011;5525;42.648;23.368;2023-07-30T10:41:02;4.10;;;3.75;;
10945;SDS011;5525;42.648;23.368;2023-07-30T10:43:34;3.90;;;3.42;;
10945;SDS011;5525;42.648;23.368;2023-07-30T10:46:02;3.88;;;3.45;;
10945;SDS011;5525;42.648;23.368;2023-07-30T10:48:29;4.03;;;3.63;;
10945;SDS011;5525;42.648;23.368;2023-07-30T10:50:58;3.67;;;3.42;;
10945;SDS011;5525;42.648;23.368;2023-07-30T10:53:25;3.72;;;3.38;;
10945;SDS011;5525;42.648;23.368;2023-07-30T10:55:52;4.03;;;3.60;;
10945;SDS011;5525;42.648;23.368;2023-07-30T10:58:22;4.55;;;3.78;;
10945;SDS011;5525;42.648;23.368;2023-07-30T11:00:51;3.95;;;3.58;;
10945;SDS011;5525;42.648;23.368;2023-07-30T11:03:18;3.88;;;3.40;;
10945;SDS011;5525;42.648;23.368;2023-07-30T11:05:46;4.03;;;3.72;;
10945;SDS011;5525;42.648;23.368;2023-07-30T11:08:13;4.80;;;3.63;;
10945;SDS011;5525;42.648;23.368;2023-07-30T11:10:43;4.22;;;3.88;;
10945;SDS011;5525;42.648;23.368;2023-07-30T11:13:11;4.35;;;4.00;;
10945;SDS011;5525;42.648;23.368;2023-07-30T11:15:43;3.78;;;3.47;;
10945;SDS011;5525;42.648;23.368;2023-07-30T11:18:10;4.45;;;4.03;;
10945;SDS011;5525;42.648;23.368;2023-07-30T11:20:38;4.53;;;3.83;;
10945;SDS011;5525;42.648;23.368;2023-07-30T11:23:17;5.43;;;3.80;;
10945;SDS011;5525;42.648;23.368;2023-07-30T11:25:46;4.78;;;4.00;;
10945;SDS011;5525;42.648;23.368;2023-07-30T11:28:14;4.30;;;3.90;;
10945;SDS011;5525;42.648;23.368;2023-07-30T11:30:42;4.40;;;4.10;;
10945;SDS011;5525;42.648;23.368;2023-07-30T11:33:14;5.43;;;4.43;;
10945;SDS011;5525;42.648;23.368;2023-07-30T11:35:41;5.15;;;4.13;;
10945;SDS011;5525;42.648;23.368;2023-07-30T11:38:10;4.35;;;4.05;;
10945;SDS011;5525;42.648;23.368;2023-07-30T11:40:38;4.78;;;3.80;;
10945;SDS011;5525;42.648;23.368;2023-07-30T11:43:05;4.00;;;3.70;;
10945;SDS011;5525;42.648;23.368;2023-07-30T11:45:31;5.13;;;4.38;;
10945;SDS011;5525;42.648;23.368;2023-07-30T11:48:06;6.32;;;4.13;;
10945;SDS011;5525;42.648;23.368;2023-07-30T11:50:47;4.22;;;3.90;;
10945;SDS011;5525;42.648;23.368;2023-07-30T11:53:16;5.85;;;4.70;;
10945;SDS011;5525;42.648;23.368;2023-07-30T11:55:44;6.28;;;4.30;;
10945;SDS011;5525;42.648;23.368;2023-07-30T11:58:11;7.15;;;4.05;;
10945;SDS011;5525;42.648;23.368;2023-07-30T12:00:39;4.53;;;4.13;;
10945;SDS011;5525;42.648;23.368;2023-07-30T12:03:10;4.50;;;4.15;;
10945;SDS011;5525;42.648;23.368;2023-07-30T12:05:37;4.68;;;4.28;;
10945;SDS011;5525;42.648;23.368;2023-07-30T12:08:05;4.82;;;4.38;;
10945;SDS011;5525;42.648;23.368;2023-07-30T12:10:42;6.05;;;4.40;;
10945;SDS011;5525;42.648;23.368;2023-07-30T12:13:14;6.25;;;4.18;;
10945;SDS011;5525;42.648;23.368;2023-07-30T12:15:43;5.32;;;4.40;;
10945;SDS011;5525;42.648;23.368;2023-07-30T12:18:11;6.47;;;4.35;;
10945;SDS011;5525;42.648;23.368;2023-07-30T12:20:38;4.05;;;3.72;;
10945;SDS011;5525;42.648;23.368;2023-07-30T12:23:05;4.68;;;4.28;;
10945;SDS011;5525;42.648;23.368;2023-07-30T12:25:31;5.05;;;4.15;;
10945;SDS011;5525;42.648;23.368;2023-07-30T12:27:58;4.45;;;4.15;;
10945;SDS011;5525;42.648;23.368;2023-07-30T12:30:25;7.50;;;4.70;;
10945;SDS011;5525;42.648;23.368;2023-07-30T12:32:52;5.70;;;4.22;;
10945;SDS011;5525;42.648;23.368;2023-07-30T12:35:20;4.90;;;4.40;;
10945;SDS011;5525;42.648;23.368;2023-07-30T12:37:47;5.43;;;4.45;;
10945;SDS011;5525;42.648;23.368;2023-07-30T12:40:14;6.28;;;4.53;;
10945;SDS011;5525;42.648;23.368;2023-07-30T12:42:41;4.55;;;4.15;;
10945;SDS011;5525;42.648;23.368;2023-07-30T12:45:07;4.63;;;3.90;;
10945;SDS011;5525;42.648;23.368;2023-07-30T12:47:35;4.82;;;4.40;;
10945;SDS011;5525;42.648;23.368;2023-07-30T12:50:02;5.65;;;4.25;;
10945;SDS011;5525;42.648;23.368;2023-07-30T12:52:30;4.70;;;4.30;;
10945;SDS011;5525;42.648;23.368;2023-07-30T12:54:58;6.25;;;4.95;;
10945;SDS011;5525;42.648;23.368;2023-07-30T12:57:24;6.18;;;4.43;;
10945;SDS011;5525;42.648;23.368;2023-07-30T12:59:51;5.78;;;4.57;;
10945;SDS011;5525;42.648;23.368;2023-07-30T13:02:18;5.03;;;4.50;;
10945;SDS011;5525;42.648;23.368;2023-07-30T13:04:44;5.03;;;4.53;;
10945;SDS011;5525;42.648;23.368;2023-07-30T13:07:11;4.50;;;4.10;;
10945;SDS011;5525;42.648;23.368;2023-07-30T13:09:39;4.90;;;4.32;;
10945;SDS011;5525;42.648;23.368;2023-07-30T13:12:06;5.35;;;4.85;;
10945;SDS011;5525;42.648;23.368;2023-07-30T13:14:33;6.32;;;4.70;;
10945;SDS011;5525;42.648;23.368;2023-07-30T13:17:00;5.80;;;4.20;;
10945;SDS011;5525;42.648;23.368;2023-07-30T13:19:26;5.00;;;4.50;;
10945;SDS011;5525;42.648;23.368;2023-07-30T13:21:55;6.35;;;4.50;;
10945;SDS011;5525;42.648;23.368;2023-07-30T13:24:21;4.68;;;4.13;;
10945;SDS011;5525;42.648;23.368;2023-07-30T13:26:49;8.05;;;5.05;;
10945;SDS011;5525;42.648;23.368;2023-07-30T13:29:16;6.18;;;4.07;;
10945;SDS011;5525;42.648;23.368;2023-07-30T13:31:42;5.28;;;4.65;;
10945;SDS011;5525;42.648;23.368;2023-07-30T13:34:09;4.63;;;4.20;;
10945;SDS011;5525;42.648;23.368;2023-07-30T13:36:36;5.97;;;4.53;;
10945;SDS011;5525;42.648;23.368;2023-07-30T13:39:02;5.70;;;4.38;;
10945;SDS011;5525;42.648;23.368;2023-07-30T13:41:29;4.43;;;4.03;;
10945;SDS011;5525;42.648;23.368;2023-07-30T13:43:57;5.05;;;4.40;;
10945;SDS011;5525;42.648;23.368;2023-07-30T13:46:24;5.32;;;4.55;;
10945;SDS011;5525;42.648;23.368;2023-07-30T13:48:50;5.60;;;4.50;;
10945;SDS011;5525;42.648;23.368;2023-07-30T13:51:17;5.90;;;4.30;;
10945;SDS011;5525;42.648;23.368;2023-07-30T13:53:44;4.60;;;4.20;;
10945;SDS011;5525;42.648;23.368;2023-07-30T13:56:10;5.20;;;4.70;;
10945;SDS011;5525;42.648;23.368;2023-07-30T13:58:37;5.60;;;4.88;;
10945;SDS011;5525;42.648;23.368;2023-07-30T14:01:06;5.60;;;5.10;;
10945;SDS011;5525;42.648;23.368;2023-07-30T14:03:34;4.88;;;4.47;;
10945;SDS011;5525;42.648;23.368;2023-07-30T14:06:01;5.43;;;4.88;;
10945;SDS011;5525;42.648;23.368;2023-07-30T14:08:27;5.35;;;4.88;;
10945;SDS011;5525;42.648;23.368;2023-07-30T14:10:54;5.38;;;4.80;;
10945;SDS011;5525;42.648;23.368;2023-07-30T14:13:22;8.02;;;4.85;;
10945;SDS011;5525;42.648;23.368;2023-07-30T14:15:49;4.55;;;4.15;;
10945;SDS011;5525;42.648;23.368;2023-07-30T14:18:17;5.13;;;4.63;;
10945;SDS011;5525;42.648;23.368;2023-07-30T14:20:44;5.70;;;4.47;;
10945;SDS011;5525;42.648;23.368;2023-07-30T14:23:11;6.50;;;4.95;;
10945;SDS011;5525;42.648;23.368;2023-07-30T14:25:37;4.63;;;4.22;;
10945;SDS011;5525;42.648;23.368;2023-07-30T14:28:04;4.82;;;4.43;;
10945;SDS011;5525;42.648;23.368;2023-07-30T14:30:31;5.82;;;4.57;;
10945;SDS011;5525;42.648;23.368;2023-07-30T14:32:59;7.03;;;5.03;;
10945;SDS011;5525;42.648;23.368;2023-07-30T14:35:27;6.05;;;4.47;;
10945;SDS011;5525;42.648;23.368;2023-07-30T14:37:54;5.03;;;4.60;;
10945;SDS011;5525;42.648;23.368;2023-07-30T14:40:21;5.43;;;4.85;;
10945;SDS011;5525;42.648;23.368;2023-07-30T14:42:48;4.75;;;4.35;;
10945;SDS011;5525;42.648;23.368;2023-07-30T14:45:14;6.78;;;4.47;;
10945;SDS011;5525;42.648;23.368;2023-07-30T14:47:41;4.47;;;4.07;;
10945;SDS011;5525;42.648;23.368;2023-07-30T14:50:08;5.20;;;4.70;;
10945;SDS011;5525;42.648;23.368;2023-07-30T14:52:37;5.32;;;4.82;;
10945;SDS011;5525;42.648;23.368;2023-07-30T14:55:04;5.13;;;4.63;;